Terminal Aerodrome Forecast
Issued by NWS

Home | Current Version | Previous Version | Text Only | Print | Product List | Glossary On
Versions: 1 2 3 4 5 6 7 8 9 10 11 12 13
000
FTUS46 KMTR 261700
TAFSJC
TAF
KSJC 261737Z 2618/2718 30005KT P6SM FEW010 SCT080 BKN130
     FM262100 32012G20KT P6SM SCT150
     FM270500 31008KT P6SM FEW020 SCT200
      TEMPO 2712/2716 BKN020
     FM271700 30009KT P6SM FEW025 BKN100=

USA.gov is the U.S. government's official web portal to all federal, state and local government web resources and services.